createdAt,value
2022-09-28T00:01:23.836Z,8.13
2022-09-28T00:05:35.597Z,8.30
2022-09-28T00:09:47.078Z,8.77
2022-09-28T00:14:03.450Z,8.90
2022-09-28T00:18:14.997Z,11.70
2022-09-28T00:22:26.612Z,9.27
2022-09-28T00:26:41.049Z,9.40
2022-09-28T00:30:55.660Z,10.20
2022-09-28T00:35:07.489Z,9.50
2022-09-28T00:39:19.257Z,10.10
2022-09-28T00:43:30.819Z,12.23
2022-09-28T00:47:42.259Z,10.50
2022-09-28T00:51:54.572Z,11.17
2022-09-28T00:56:12.014Z,12.80
2022-09-28T01:00:23.990Z,10.63
2022-09-28T01:04:36.621Z,10.53
2022-09-28T01:08:51.675Z,10.23
2022-09-28T01:13:03.651Z,10.57
2022-09-28T01:17:18.087Z,10.40
2022-09-28T01:22:18.324Z,10.63
2022-09-28T01:26:36.327Z,10.70
2022-09-28T01:31:09.702Z,10.53
2022-09-28T01:35:35.548Z,10.57
2022-09-28T01:39:50.062Z,10.67
2022-09-28T01:44:04.760Z,9.40
2022-09-28T01:48:55.238Z,9.57
2022-09-28T01:53:17.240Z,9.63
2022-09-28T01:57:44.851Z,10.33
2022-09-28T02:02:12.800Z,11.87
2022-09-28T02:06:38.211Z,9.67
2022-09-28T02:11:06.140Z,10.13
2022-09-28T02:15:27.916Z,11.13
2022-09-28T02:19:41.312Z,11.63
2022-09-28T02:23:59.441Z,13.43
2022-09-28T02:28:16.120Z,12.10
2022-09-28T02:32:30.786Z,13.30
2022-09-28T02:36:44.942Z,14.97
2022-09-28T02:41:22.111Z,11.93
2022-09-28T02:45:43.447Z,12.40
2022-09-28T02:50:43.168Z,11.47
2022-09-28T02:55:12.973Z,12.07
2022-09-28T02:59:33.340Z,11.30
2022-09-28T03:04:16.965Z,11.80
2022-09-28T03:08:49.000Z,13.77
2022-09-28T03:13:03.220Z,10.23
2022-09-28T03:17:14.934Z,11.90
2022-09-28T03:21:26.663Z,11.77
2022-09-28T03:25:38.215Z,11.73
2022-09-28T03:29:49.981Z,11.03
2022-09-28T03:34:01.943Z,10.50
2022-09-28T03:38:13.655Z,10.53
2022-09-28T03:42:27.379Z,10.63
2022-09-28T03:46:39.261Z,9.67
2022-09-28T03:50:59.173Z,9.27
2022-09-28T03:55:11.097Z,7.87
2022-09-28T03:59:23.777Z,6.77
2022-09-28T04:03:35.625Z,7.13
2022-09-28T04:07:47.255Z,8.20
2022-09-28T04:12:04.376Z,6.37
2022-09-28T04:16:18.563Z,7.03
2022-09-28T04:20:45.393Z,6.53
2022-09-28T04:24:58.078Z,6.30
2022-09-28T04:29:16.723Z,8.70
2022-09-28T04:33:33.520Z,6.27
2022-09-28T04:37:45.200Z,5.60
2022-09-28T04:41:56.809Z,5.40
2022-09-28T04:46:10.621Z,5.97
2022-09-28T04:50:28.412Z,5.70
2022-09-28T04:55:01.786Z,6.07
2022-09-28T04:59:13.602Z,7.57
2022-09-28T05:03:27.038Z,6.70
2022-09-28T05:08:02.097Z,6.40
2022-09-28T05:12:13.881Z,6.00
2022-09-28T05:16:26.760Z,10.97
2022-09-28T05:21:11.198Z,9.37
2022-09-28T05:25:23.265Z,6.40
2022-09-28T05:29:47.623Z,6.80
2022-09-28T05:34:18.040Z,6.60
2022-09-28T05:38:30.642Z,6.70
2022-09-28T05:42:42.370Z,7.13
2022-09-28T05:46:54.773Z,6.33
2022-09-28T05:51:07.630Z,6.53
2022-09-28T05:55:19.929Z,7.50
2022-09-28T05:59:31.600Z,11.07
2022-09-28T06:03:43.319Z,6.23
2022-09-28T06:07:57.336Z,6.57
2022-09-28T06:12:09.399Z,8.63
2022-09-28T06:16:28.189Z,6.60
2022-09-28T06:20:43.450Z,7.23
2022-09-28T06:25:02.034Z,6.63
2022-09-28T06:29:19.908Z,6.47
2022-09-28T06:33:31.933Z,6.77
2022-09-28T06:37:45.016Z,28.57
2022-09-28T06:41:57.045Z,25.33
2022-09-28T06:46:10.489Z,27.77
2022-09-28T06:50:40.550Z,26.50
2022-09-28T06:55:10.815Z,11.43
2022-09-28T06:59:27.590Z,21.50
2022-09-28T07:03:40.581Z,7.07
2022-09-28T07:08:11.348Z,5.47
2022-09-28T07:12:52.263Z,4.30
2022-09-28T07:17:18.771Z,4.10
2022-09-28T07:21:30.813Z,4.33
2022-09-28T07:25:47.949Z,3.97
2022-09-28T07:30:16.608Z,3.17
2022-09-28T07:34:48.601Z,3.30
2022-09-28T07:39:09.076Z,2.77
2022-09-28T07:43:21.801Z,1.80
2022-09-28T07:47:35.714Z,3.47
2022-09-28T07:52:06.177Z,1.40
2022-09-28T07:56:23.724Z,3.22
2022-09-28T08:01:11.909Z,2.22
2022-09-28T08:05:24.580Z,1.30
2022-09-28T08:09:36.426Z,1.63
2022-09-28T08:14:06.577Z,2.10
2022-09-28T08:18:36.971Z,1.33
2022-09-28T08:22:49.667Z,1.27
2022-09-28T08:27:01.345Z,1.30
2022-09-28T08:31:15.526Z,1.15
2022-09-28T08:35:57.775Z,2.17
2022-09-28T08:40:34.943Z,4.38
2022-09-28T08:45:08.037Z,2.58
2022-09-28T08:49:47.569Z,1.58
2022-09-28T08:54:46.082Z,1.88
2022-09-28T08:59:13.708Z,1.13
2022-09-28T09:03:35.758Z,1.85
2022-09-28T09:08:50.063Z,1.08
2022-09-28T09:13:19.172Z,3.13
2022-09-28T09:17:39.166Z,2.05
2022-09-28T09:22:28.266Z,1.42
2022-09-28T09:27:07.076Z,2.20
2022-09-28T09:31:40.796Z,0.80
2022-09-28T09:36:11.999Z,0.98
2022-09-28T09:41:04.334Z,0.90
2022-09-28T09:46:03.801Z,2.60
2022-09-28T09:50:30.182Z,0.95
2022-09-28T09:55:04.274Z,0.80
2022-09-28T09:59:41.439Z,0.85
2022-09-28T10:04:15.718Z,0.95
2022-09-28T10:08:28.985Z,0.95
2022-09-28T10:12:41.486Z,0.95
2022-09-28T10:16:56.686Z,1.13
2022-09-28T10:21:28.898Z,0.52
2022-09-28T10:25:46.560Z,0.60
2022-09-28T10:30:02.992Z,0.98
2022-09-28T10:34:17.485Z,0.82
2022-09-28T10:38:30.906Z,0.45
2022-09-28T10:42:59.335Z,0.60
2022-09-28T10:47:17.085Z,1.52
2022-09-28T10:51:56.578Z,0.55
2022-09-28T10:56:21.199Z,0.60
2022-09-28T11:00:41.366Z,0.68
2022-09-28T11:05:06.726Z,0.65
2022-09-28T11:09:38.891Z,0.50
2022-09-28T11:14:03.510Z,0.55
2022-09-28T11:18:31.433Z,1.30
2022-09-28T11:22:52.335Z,0.45
2022-09-28T11:27:06.066Z,7.03
2022-09-28T11:31:28.093Z,2.22
2022-09-28T11:35:56.963Z,1.50
2022-09-28T11:40:28.574Z,1.08
2022-09-28T11:44:46.437Z,0.50
2022-09-28T11:49:14.488Z,0.60
2022-09-28T11:54:14.173Z,3.63
2022-09-28T11:58:35.102Z,1.30
2022-09-28T12:03:00.571Z,0.57
2022-09-28T12:07:16.555Z,1.40
2022-09-28T12:11:36.380Z,0.70
2022-09-28T12:20:42.234Z,0.50
2022-09-28T12:24:57.609Z,0.60
2022-09-28T12:29:18.478Z,0.65
2022-09-28T12:33:30.125Z,0.93
2022-09-28T12:37:51.465Z,0.68
2022-09-28T12:42:44.276Z,1.67
2022-09-28T12:47:16.978Z,0.30
2022-09-28T12:51:28.485Z,0.95
2022-09-28T12:55:56.159Z,0.40
2022-09-28T13:00:18.639Z,1.55
2022-09-28T13:04:30.194Z,0.50
2022-09-28T13:08:55.204Z,0.70
2022-09-28T13:13:12.721Z,0.57
2022-09-28T13:17:46.031Z,0.63
2022-09-28T13:22:01.231Z,1.02
2022-09-28T13:26:15.652Z,0.68
2022-09-28T13:30:27.558Z,0.73
2022-09-28T13:34:39.701Z,0.70
2022-09-28T13:38:52.447Z,1.42
2022-09-28T13:43:28.531Z,0.80
2022-09-28T13:47:59.886Z,1.30
2022-09-28T13:52:45.576Z,1.63
2022-09-28T13:57:13.170Z,3.38
2022-09-28T14:01:40.954Z,2.47
2022-09-28T14:06:21.533Z,3.15
2022-09-28T14:10:46.747Z,1.50
2022-09-28T14:14:58.587Z,3.67
2022-09-28T14:19:20.897Z,1.90
2022-09-28T14:24:00.045Z,1.45
2022-09-28T14:28:23.993Z,1.42
2022-09-28T14:32:37.403Z,1.83
2022-09-28T14:37:07.905Z,0.95
2022-09-28T14:41:34.409Z,1.35
2022-09-28T14:45:46.043Z,1.40
2022-09-28T14:50:03.107Z,0.95
2022-09-28T14:54:19.877Z,1.40
2022-09-28T14:58:33.566Z,0.80
2022-09-28T15:02:52.314Z,0.75
2022-09-28T15:07:03.876Z,3.03
2022-09-28T15:11:23.593Z,1.67
2022-09-28T15:15:38.701Z,1.73
2022-09-28T15:20:12.155Z,0.80
2022-09-28T15:24:32.516Z,1.55
2022-09-28T15:28:45.218Z,1.10
2022-09-28T15:33:18.214Z,1.60
2022-09-28T15:37:40.262Z,3.47
2022-09-28T15:41:52.518Z,1.80
2022-09-28T15:46:07.706Z,7.28
2022-09-28T15:50:26.823Z,3.17
2022-09-28T15:54:44.210Z,1.60
2022-09-28T15:59:25.405Z,3.65
2022-09-28T16:03:37.460Z,16.25
2022-09-28T16:07:56.051Z,20.98
2022-09-28T16:12:11.419Z,9.15
2022-09-28T16:16:29.948Z,6.15
2022-09-28T16:20:42.528Z,8.95
2022-09-28T16:24:59.968Z,8.70
2022-09-28T16:29:28.320Z,4.72
2022-09-28T16:33:46.565Z,4.18
2022-09-28T16:38:10.820Z,3.72
2022-09-28T16:42:22.653Z,2.80
2022-09-28T16:46:37.576Z,2.08
2022-09-28T16:50:50.390Z,1.98
2022-09-28T16:59:48.604Z,15.15
2022-09-28T17:04:00.169Z,19.30
2022-09-28T17:08:17.606Z,13.07
2022-09-28T17:12:29.526Z,13.82
2022-09-28T17:21:16.223Z,41.28
2022-09-28T17:25:27.917Z,29.73
2022-09-28T17:29:39.705Z,10.25
2022-09-28T17:33:52.115Z,6.78
2022-09-28T17:38:03.669Z,6.53
2022-09-28T17:42:17.122Z,9.57
2022-09-28T17:46:38.665Z,14.93
2022-09-28T17:50:50.653Z,16.40
2022-09-28T17:55:02.214Z,23.45
2022-09-28T17:59:16.934Z,34.40
2022-09-28T18:03:28.522Z,25.42
2022-09-28T18:07:45.413Z,17.35
2022-09-28T18:12:00.920Z,11.50
2022-09-28T18:16:14.275Z,9.70
2022-09-28T18:20:25.927Z,7.13
2022-09-28T18:24:37.507Z,29.00
2022-09-28T18:28:49.040Z,30.05
2022-09-28T18:33:00.580Z,27.67
2022-09-28T18:37:12.111Z,24.40
2022-09-28T18:41:24.206Z,18.77
2022-09-28T18:45:36.191Z,17.48
2022-09-28T18:49:47.765Z,11.70
2022-09-28T18:54:06.560Z,9.20
2022-09-28T18:58:18.497Z,10.52
2022-09-28T19:02:30.095Z,14.07
2022-09-28T19:06:44.237Z,14.43
2022-09-28T19:11:10.582Z,10.97
2022-09-28T19:15:22.705Z,10.93
2022-09-28T19:19:34.200Z,9.93
2022-09-28T19:23:49.264Z,9.67
2022-09-28T19:28:01.561Z,10.27
2022-09-28T19:32:13.170Z,10.30
2022-09-28T19:36:28.319Z,10.03
2022-09-28T19:40:39.811Z,21.87
2022-09-28T19:44:51.327Z,17.10
2022-09-28T19:49:14.110Z,14.17
2022-09-28T19:53:27.257Z,11.27
2022-09-28T19:57:38.742Z,8.57
2022-09-28T20:01:52.923Z,8.20
2022-09-28T20:06:05.214Z,6.67
2022-09-28T20:10:16.763Z,6.10
2022-09-28T20:14:33.057Z,4.80
2022-09-28T20:18:50.276Z,5.47
2022-09-28T20:23:03.029Z,4.43
2022-09-28T20:27:14.490Z,4.33
2022-09-28T20:31:26.102Z,5.93
2022-09-28T20:35:40.338Z,5.27
2022-09-28T20:39:53.210Z,4.70
2022-09-28T20:44:06.494Z,10.03
2022-09-28T20:48:18.874Z,8.07
2022-09-28T20:52:30.402Z,5.77
2022-09-28T20:56:41.891Z,7.37
2022-09-28T21:01:01.377Z,6.33
2022-09-28T21:05:12.940Z,5.80
2022-09-28T21:09:24.374Z,7.30
2022-09-28T21:13:35.819Z,5.57
2022-09-28T21:17:47.318Z,7.17
2022-09-28T21:21:58.812Z,5.43
2022-09-28T21:26:16.216Z,6.67
2022-09-28T21:30:27.699Z,7.53
2022-09-28T21:34:39.216Z,9.03
2022-09-28T21:38:50.687Z,8.67
2022-09-28T21:43:02.217Z,9.83
2022-09-28T21:47:13.698Z,9.17
2022-09-28T21:51:25.347Z,8.73
2022-09-28T21:55:37.427Z,12.93
2022-09-28T21:59:48.906Z,10.70
2022-09-28T22:04:00.779Z,10.03
2022-09-28T22:08:12.415Z,7.13
2022-09-28T22:12:23.892Z,5.77
2022-09-28T22:16:35.590Z,6.47
2022-09-28T22:20:47.073Z,6.97
2022-09-28T22:24:58.639Z,5.47
2022-09-28T22:29:10.691Z,7.00
2022-09-28T22:33:22.865Z,5.07
2022-09-28T22:37:34.322Z,5.30
2022-09-28T22:41:45.993Z,6.67
2022-09-28T22:46:27.786Z,6.97
2022-09-28T22:50:46.928Z,7.10
2022-09-28T22:54:58.373Z,6.40
2022-09-28T22:59:11.525Z,6.00
2022-09-28T23:03:23.579Z,5.90
2022-09-28T23:07:35.030Z,6.57
2022-09-28T23:11:46.661Z,5.00
2022-09-28T23:16:00.323Z,5.03
2022-09-28T23:20:11.810Z,4.77
2022-09-28T23:24:23.455Z,5.47
2022-09-28T23:28:34.997Z,4.80
2022-09-28T23:32:46.541Z,4.97
2022-09-28T23:36:57.987Z,6.73
2022-09-28T23:41:10.055Z,5.63
2022-09-28T23:45:21.626Z,6.20
2022-09-28T23:49:33.130Z,6.70
2022-09-28T23:53:45.497Z,6.53
2022-09-28T23:57:58.585Z,6.20
